sensor_id;sensor_type;location;lat;lon;timestamp;pressure;altitude;pressure_sealevel;temperature;humidity
65376;BME280;51976;47.332;9.404;2023-04-24T00:01:11;91901.84;;;8.33;77.32
65376;BME280;51976;47.332;9.404;2023-04-24T00:03:38;91949.66;;;8.69;77.44
65376;BME280;51976;47.332;9.404;2023-04-24T00:06:05;91941.53;;;8.55;77.85
65376;BME280;51976;47.332;9.404;2023-04-24T00:08:32;91876.28;;;8.17;77.40
65376;BME280;51976;47.332;9.404;2023-04-24T00:10:58;91928.38;;;8.54;77.11
65376;BME280;51976;47.332;9.404;2023-04-24T00:13:23;91924.69;;;8.49;77.07
65376;BME280;51976;47.332;9.404;2023-04-24T00:15:49;91951.19;;;8.75;76.98
65376;BME280;51976;47.332;9.404;2023-04-24T00:18:14;91876.56;;;8.15;76.71
65376;BME280;51976;47.332;9.404;2023-04-24T00:20:40;91946.41;;;8.53;77.48
65376;BME280;51976;47.332;9.404;2023-04-24T00:23:06;91887.09;;;8.12;77.08
65376;BME280;51976;47.332;9.404;2023-04-24T00:25:31;91954.91;;;8.41;77.32
65376;BME280;51976;47.332;9.404;2023-04-24T00:27:56;91919.78;;;8.38;76.48
65376;BME280;51976;47.332;9.404;2023-04-24T00:30:22;91869.69;;;8.09;76.92
65376;BME280;51976;47.332;9.404;2023-04-24T00:32:48;91899.16;;;8.33;76.69
65376;BME280;51976;47.332;9.404;2023-04-24T00:35:13;91841.75;;;7.92;76.27
65376;BME280;51976;47.332;9.404;2023-04-24T00:37:39;91841.47;;;8.12;76.45
65376;BME280;51976;47.332;9.404;2023-04-24T00:40:06;91909.00;;;8.57;75.93
65376;BME280;51976;47.332;9.404;2023-04-24T00:42:31;91896.69;;;8.18;77.51
65376;BME280;51976;47.332;9.404;2023-04-24T00:44:58;91874.44;;;8.31;77.02
65376;BME280;51976;47.332;9.404;2023-04-24T00:47:25;91911.44;;;8.39;77.03
65376;BME280;51976;47.332;9.404;2023-04-24T00:49:50;91855.38;;;7.95;77.59
65376;BME280;51976;47.332;9.404;2023-04-24T00:52:16;91918.78;;;8.29;77.86
65376;BME280;51976;47.332;9.404;2023-04-24T00:54:43;91857.69;;;8.02;77.64
65376;BME280;51976;47.332;9.404;2023-04-24T00:57:10;91856.34;;;7.86;77.41
65376;BME280;51976;47.332;9.404;2023-04-24T00:59:36;91917.81;;;8.43;77.21
65376;BME280;51976;47.332;9.404;2023-04-24T01:02:02;91901.25;;;8.36;77.19
65376;BME280;51976;47.332;9.404;2023-04-24T01:04:27;91873.66;;;8.31;77.56
65376;BME280;51976;47.332;9.404;2023-04-24T01:06:54;91849.50;;;8.12;77.51
65376;BME280;51976;47.332;9.404;2023-04-24T01:09:24;91872.81;;;8.35;76.16
65376;BME280;51976;47.332;9.404;2023-04-24T01:11:50;91834.28;;;8.07;75.99
65376;BME280;51976;47.332;9.404;2023-04-24T01:14:16;91889.47;;;8.51;76.35
65376;BME280;51976;47.332;9.404;2023-04-24T01:16:41;91831.63;;;8.21;75.93
65376;BME280;51976;47.332;9.404;2023-04-24T01:19:07;91896.84;;;8.45;75.78
65376;BME280;51976;47.332;9.404;2023-04-24T01:21:36;91917.06;;;8.57;74.69
65376;BME280;51976;47.332;9.404;2023-04-24T01:24:03;91902.03;;;8.56;74.64
65376;BME280;51976;47.332;9.404;2023-04-24T01:26:29;91881.16;;;8.34;74.45
65376;BME280;51976;47.332;9.404;2023-04-24T01:28:55;91853.22;;;8.16;74.24
65376;BME280;51976;47.332;9.404;2023-04-24T01:31:21;91872.06;;;8.11;74.21
65376;BME280;51976;47.332;9.404;2023-04-24T01:33:47;91844.13;;;7.74;74.59
65376;BME280;51976;47.332;9.404;2023-04-24T01:36:13;91921.16;;;8.35;74.99
65376;BME280;51976;47.332;9.404;2023-04-24T01:38:39;91891.59;;;8.17;74.84
65376;BME280;51976;47.332;9.404;2023-04-24T01:41:05;91924.00;;;8.44;75.21
65376;BME280;51976;47.332;9.404;2023-04-24T01:43:30;91901.03;;;8.14;74.36
65376;BME280;51976;47.332;9.404;2023-04-24T01:45:56;91855.25;;;7.87;74.59
65376;BME280;51976;47.332;9.404;2023-04-24T01:48:22;91893.84;;;8.09;75.33
65376;BME280;51976;47.332;9.404;2023-04-24T01:50:47;91863.13;;;7.97;75.04
65376;BME280;51976;47.332;9.404;2023-04-24T01:53:13;91865.91;;;7.92;74.94
65376;BME280;51976;47.332;9.404;2023-04-24T01:55:41;91860.31;;;7.88;74.48
65376;BME280;51976;47.332;9.404;2023-04-24T01:58:09;91838.84;;;7.88;74.48
65376;BME280;51976;47.332;9.404;2023-04-24T02:00:34;91927.59;;;8.34;73.98
65376;BME280;51976;47.332;9.404;2023-04-24T02:03:00;91921.16;;;8.35;73.61
65376;BME280;51976;47.332;9.404;2023-04-24T02:05:27;91923.53;;;8.18;72.42
65376;BME280;51976;47.332;9.404;2023-04-24T02:07:52;91864.97;;;7.82;71.97
65376;BME280;51976;47.332;9.404;2023-04-24T02:10:18;91922.25;;;8.34;71.60
65376;BME280;51976;47.332;9.404;2023-04-24T02:12:43;91900.66;;;8.02;72.50
65376;BME280;51976;47.332;9.404;2023-04-24T02:15:09;91896.59;;;8.04;72.87
65376;BME280;51976;47.332;9.404;2023-04-24T02:17:35;91839.91;;;7.68;72.92
65376;BME280;51976;47.332;9.404;2023-04-24T02:20:01;91851.31;;;7.79;73.26
65376;BME280;51976;47.332;9.404;2023-04-24T02:22:27;91860.38;;;7.83;73.33
65376;BME280;51976;47.332;9.404;2023-04-24T02:24:52;91899.66;;;8.17;73.02
65376;BME280;51976;47.332;9.404;2023-04-24T02:27:18;91855.59;;;7.80;73.44
65376;BME280;51976;47.332;9.404;2023-04-24T02:29:43;91873.81;;;8.02;73.22
65376;BME280;51976;47.332;9.404;2023-04-24T02:32:09;91863.28;;;7.87;73.39
65376;BME280;51976;47.332;9.404;2023-04-24T02:34:37;91887.72;;;7.85;73.71
65376;BME280;51976;47.332;9.404;2023-04-24T02:37:03;91838.25;;;7.54;74.57
65376;BME280;51976;47.332;9.404;2023-04-24T02:39:28;91873.28;;;8.00;74.64
65376;BME280;51976;47.332;9.404;2023-04-24T02:41:53;91921.75;;;7.90;75.17
65376;BME280;51976;47.332;9.404;2023-04-24T02:44:19;91920.28;;;7.97;74.87
65376;BME280;51976;47.332;9.404;2023-04-24T02:46:44;91897.50;;;7.95;74.75
65376;BME280;51976;47.332;9.404;2023-04-24T02:49:10;91863.53;;;7.66;74.64
65376;BME280;51976;47.332;9.404;2023-04-24T02:51:37;91893.56;;;7.68;75.29
65376;BME280;51976;47.332;9.404;2023-04-24T02:54:05;91811.78;;;7.04;75.74
65376;BME280;51976;47.332;9.404;2023-04-24T02:56:31;91843.69;;;7.25;74.66
65376;BME280;51976;47.332;9.404;2023-04-24T02:58:56;91845.97;;;7.36;73.54
65376;BME280;51976;47.332;9.404;2023-04-24T03:01:21;91892.34;;;7.79;72.53
65376;BME280;51976;47.332;9.404;2023-04-24T03:03:47;91887.66;;;8.09;71.86
65376;BME280;51976;47.332;9.404;2023-04-24T03:06:12;91882.66;;;7.84;72.58
65376;BME280;51976;47.332;9.404;2023-04-24T03:08:38;91892.75;;;7.92;71.38
65376;BME280;51976;47.332;9.404;2023-04-24T03:11:03;91910.34;;;7.98;71.44
65376;BME280;51976;47.332;9.404;2023-04-24T03:13:28;91826.94;;;7.57;71.34
65376;BME280;51976;47.332;9.404;2023-04-24T03:15:54;91897.50;;;7.95;71.69
65376;BME280;51976;47.332;9.404;2023-04-24T03:18:20;91861.53;;;7.58;71.97
65376;BME280;51976;47.332;9.404;2023-04-24T03:20:46;91883.53;;;7.55;72.69
65376;BME280;51976;47.332;9.404;2023-04-24T03:23:12;91885.66;;;7.58;72.67
65376;BME280;51976;47.332;9.404;2023-04-24T03:25:38;91877.66;;;7.53;73.55
65376;BME280;51976;47.332;9.404;2023-04-24T03:28:04;91888.19;;;7.68;72.28
65376;BME280;51976;47.332;9.404;2023-04-24T03:30:29;91846.22;;;7.59;71.93
65376;BME280;51976;47.332;9.404;2023-04-24T03:32:55;91904.41;;;7.82;72.53
65376;BME280;51976;47.332;9.404;2023-04-24T03:35:20;91868.81;;;7.53;72.17
65376;BME280;51976;47.332;9.404;2023-04-24T03:37:47;91899.59;;;7.79;71.70
65376;BME280;51976;47.332;9.404;2023-04-24T03:40:12;91807.13;;;7.34;70.85
65376;BME280;51976;47.332;9.404;2023-04-24T03:42:38;91835.34;;;7.50;71.36
65376;BME280;51976;47.332;9.404;2023-04-24T03:45:03;91911.88;;;8.04;71.14
65376;BME280;51976;47.332;9.404;2023-04-24T03:47:29;91861.97;;;7.65;71.29
65376;BME280;51976;47.332;9.404;2023-04-24T03:49:54;91786.38;;;7.21;71.14
65376;BME280;51976;47.332;9.404;2023-04-24T03:52:21;91870.72;;;7.71;71.64
65376;BME280;51976;47.332;9.404;2023-04-24T03:54:46;91896.06;;;7.84;70.95
65376;BME280;51976;47.332;9.404;2023-04-24T03:57:11;91832.34;;;7.33;71.22
65376;BME280;51976;47.332;9.404;2023-04-24T03:59:37;91856.50;;;7.52;71.33
65376;BME280;51976;47.332;9.404;2023-04-24T04:02:02;91853.22;;;7.36;71.94
65376;BME280;51976;47.332;9.404;2023-04-24T04:04:28;91910.16;;;7.70;72.40
65376;BME280;51976;47.332;9.404;2023-04-24T04:06:53;91925.19;;;7.71;72.24
65376;BME280;51976;47.332;9.404;2023-04-24T04:09:19;91900.09;;;7.62;72.08
65376;BME280;51976;47.332;9.404;2023-04-24T04:11:44;91889.94;;;7.59;71.86
65376;BME280;51976;47.332;9.404;2023-04-24T04:14:10;91898.06;;;7.73;71.87
65376;BME280;51976;47.332;9.404;2023-04-24T04:16:35;91927.25;;;7.98;71.35
65376;BME280;51976;47.332;9.404;2023-04-24T04:19:03;91904.38;;;7.63;71.77
65376;BME280;51976;47.332;9.404;2023-04-24T04:21:29;91919.47;;;7.78;72.44
65376;BME280;51976;47.332;9.404;2023-04-24T04:23:59;91934.09;;;7.91;72.49
65376;BME280;51976;47.332;9.404;2023-04-24T04:26:24;91861.19;;;7.41;72.71
65376;BME280;51976;47.332;9.404;2023-04-24T04:28:51;91895.75;;;7.42;73.63
65376;BME280;51976;47.332;9.404;2023-04-24T04:31:18;91836.69;;;7.05;73.75
65376;BME280;51976;47.332;9.404;2023-04-24T04:33:43;91912.00;;;7.51;73.88
65376;BME280;51976;47.332;9.404;2023-04-24T04:36:09;91952.53;;;7.73;74.06
65376;BME280;51976;47.332;9.404;2023-04-24T04:38:34;91927.53;;;7.54;74.80
65376;BME280;51976;47.332;9.404;2023-04-24T04:41:00;91946.06;;;7.74;74.53
65376;BME280;51976;47.332;9.404;2023-04-24T04:43:26;91924.84;;;7.54;74.61
65376;BME280;51976;47.332;9.404;2023-04-24T04:45:52;91920.63;;;7.72;73.99
65376;BME280;51976;47.332;9.404;2023-04-24T04:48:17;91919.00;;;7.71;74.15
65376;BME280;51976;47.332;9.404;2023-04-24T04:50:44;91904.75;;;7.75;73.23
65376;BME280;51976;47.332;9.404;2023-04-24T04:53:09;91887.28;;;7.78;72.96
65376;BME280;51976;47.332;9.404;2023-04-24T04:55:38;91894.19;;;7.84;72.36
65376;BME280;51976;47.332;9.404;2023-04-24T04:58:04;91911.13;;;7.79;73.31
65376;BME280;51976;47.332;9.404;2023-04-24T05:00:29;91857.66;;;7.45;72.67
65376;BME280;51976;47.332;9.404;2023-04-24T05:03:00;91918.97;;;7.95;72.33
65376;BME280;51976;47.332;9.404;2023-04-24T05:05:28;91870.97;;;7.74;71.57
65376;BME280;51976;47.332;9.404;2023-04-24T05:07:55;91932.50;;;8.27;72.93
65376;BME280;51976;47.332;9.404;2023-04-24T05:10:25;91906.16;;;8.10;72.94
65376;BME280;51976;47.332;9.404;2023-04-24T05:12:50;91905.94;;;8.07;71.94
65376;BME280;51976;47.332;9.404;2023-04-24T05:15:38;91936.50;;;8.30;71.60
65376;BME280;51976;47.332;9.404;2023-04-24T05:18:04;91907.53;;;8.08;71.37
65376;BME280;51976;47.332;9.404;2023-04-24T05:20:35;91938.72;;;8.46;70.44
65376;BME280;51976;47.332;9.404;2023-04-24T05:23:08;91900.63;;;8.21;70.19
65376;BME280;51976;47.332;9.404;2023-04-24T05:25:33;91876.03;;;7.95;70.56
65376;BME280;51976;47.332;9.404;2023-04-24T05:28:11;91925.75;;;8.30;70.20
65376;BME280;51976;47.332;9.404;2023-04-24T05:31:00;91919.59;;;8.10;69.61
65376;BME280;51976;47.332;9.404;2023-04-24T05:33:57;91955.56;;;8.33;69.81
65376;BME280;51976;47.332;9.404;2023-04-24T05:36:26;91843.94;;;7.47;70.09
65376;BME280;51976;47.332;9.404;2023-04-24T05:38:52;91922.56;;;8.09;69.96
65376;BME280;51976;47.332;9.404;2023-04-24T05:41:17;91955.75;;;8.18;70.81
65376;BME280;51976;47.332;9.404;2023-04-24T05:43:43;91967.53;;;7.74;72.10
65376;BME280;51976;47.332;9.404;2023-04-24T05:46:08;91986.16;;;7.90;72.39
65376;BME280;51976;47.332;9.404;2023-04-24T05:48:35;91910.03;;;7.38;73.07
65376;BME280;51976;47.332;9.404;2023-04-24T05:51:00;91979.88;;;7.75;73.21
65376;BME280;51976;47.332;9.404;2023-04-24T05:53:26;91954.22;;;7.40;73.39
65376;BME280;51976;47.332;9.404;2023-04-24T05:55:52;91968.16;;;7.42;73.50
65376;BME280;51976;47.332;9.404;2023-04-24T05:58:17;91922.56;;;7.19;73.58
65376;BME280;51976;47.332;9.404;2023-04-24T06:00:44;91991.09;;;7.54;74.06
65376;BME280;51976;47.332;9.404;2023-04-24T06:03:12;91957.91;;;7.21;73.71
65376;BME280;51976;47.332;9.404;2023-04-24T06:05:37;91931.63;;;6.94;74.50
65376;BME280;51976;47.332;9.404;2023-04-24T06:08:06;91925.28;;;6.85;74.77
65376;BME280;51976;47.332;9.404;2023-04-24T06:10:32;91988.06;;;7.07;76.46
65376;BME280;51976;47.332;9.404;2023-04-24T06:12:57;91928.56;;;6.48;78.71
65376;BME280;51976;47.332;9.404;2023-04-24T06:15:28;91959.72;;;6.67;80.11
65376;BME280;51976;47.332;9.404;2023-04-24T06:17:53;91961.19;;;6.50;80.39
65376;BME280;51976;47.332;9.404;2023-04-24T06:20:19;91955.91;;;6.39;80.80
65376;BME280;51976;47.332;9.404;2023-04-24T06:22:44;91976.28;;;6.30;81.93
65376;BME280;51976;47.332;9.404;2023-04-24T06:25:10;92006.97;;;6.53;79.57
65376;BME280;51976;47.332;9.404;2023-04-24T06:27:35;92002.94;;;6.56;76.26
65376;BME280;51976;47.332;9.404;2023-04-24T06:30:04;91972.63;;;6.21;75.69
65376;BME280;51976;47.332;9.404;2023-04-24T06:32:30;92036.31;;;6.68;75.86
65376;BME280;51976;47.332;9.404;2023-04-24T06:34:56;92007.72;;;6.59;74.60
65376;BME280;51976;47.332;9.404;2023-04-24T06:37:22;91993.59;;;6.48;75.18
65376;BME280;51976;47.332;9.404;2023-04-24T06:39:47;91997.78;;;6.59;74.31
65376;BME280;51976;47.332;9.404;2023-04-24T06:42:13;92034.84;;;6.86;74.10
65376;BME280;51976;47.332;9.404;2023-04-24T06:44:38;92043.66;;;6.92;74.50
65376;BME280;51976;47.332;9.404;2023-04-24T06:47:10;92006.50;;;6.80;74.43
65376;BME280;51976;47.332;9.404;2023-04-24T06:49:36;91997.41;;;6.81;75.13
65376;BME280;51976;47.332;9.404;2023-04-24T06:52:02;92066.63;;;7.37;74.22
65376;BME280;51976;47.332;9.404;2023-04-24T06:54:28;92020.88;;;6.89;74.38
65376;BME280;51976;47.332;9.404;2023-04-24T06:56:54;92027.19;;;7.08;74.21
65376;BME280;51976;47.332;9.404;2023-04-24T06:59:20;92027.38;;;7.17;74.06
65376;BME280;51976;47.332;9.404;2023-04-24T07:01:46;92082.44;;;7.38;74.75
65376;BME280;51976;47.332;9.404;2023-04-24T07:04:11;92025.97;;;7.25;74.24
65376;BME280;51976;47.332;9.404;2023-04-24T07:06:40;92043.28;;;7.37;73.52
65376;BME280;51976;47.332;9.404;2023-04-24T07:09:06;92013.00;;;7.08;73.20
65376;BME280;51976;47.332;9.404;2023-04-24T07:11:34;92049.47;;;7.38;73.82
65376;BME280;51976;47.332;9.404;2023-04-24T07:14:03;92087.13;;;7.52;72.96
65376;BME280;51976;47.332;9.404;2023-04-24T07:16:29;92043.00;;;7.10;73.50
65376;BME280;51976;47.332;9.404;2023-04-24T07:19:04;92054.63;;;7.29;72.31
65376;BME280;51976;47.332;9.404;2023-04-24T07:21:29;92065.34;;;7.29;72.31
65376;BME280;51976;47.332;9.404;2023-04-24T07:23:59;92001.72;;;6.77;71.65
65376;BME280;51976;47.332;9.404;2023-04-24T07:26:26;92015.72;;;7.03;71.84
65376;BME280;51976;47.332;9.404;2023-04-24T07:28:52;92057.19;;;7.39;71.29
65376;BME280;51976;47.332;9.404;2023-04-24T07:31:23;92014.81;;;7.12;71.30
65376;BME280;51976;47.332;9.404;2023-04-24T07:33:55;92069.19;;;7.47;71.82
65376;BME280;51976;47.332;9.404;2023-04-24T07:36:23;92034.53;;;7.27;72.30
65376;BME280;51976;47.332;9.404;2023-04-24T07:38:49;92097.31;;;7.84;72.02
65376;BME280;51976;47.332;9.404;2023-04-24T07:41:15;92116.09;;;7.84;70.89
65376;BME280;51976;47.332;9.404;2023-04-24T07:43:41;92035.00;;;7.34;70.97
65376;BME280;51976;47.332;9.404;2023-04-24T07:46:07;92100.97;;;7.64;70.29
65376;BME280;51976;47.332;9.404;2023-04-24T07:48:39;92036.25;;;7.41;70.02
65376;BME280;51976;47.332;9.404;2023-04-24T07:51:04;92039.22;;;7.40;69.62
65376;BME280;51976;47.332;9.404;2023-04-24T07:53:30;92058.28;;;7.67;70.44
65376;BME280;51976;47.332;9.404;2023-04-24T07:55:56;92032.31;;;7.63;69.72
65376;BME280;51976;47.332;9.404;2023-04-24T07:58:21;92063.16;;;7.65;69.38
65376;BME280;51976;47.332;9.404;2023-04-24T08:00:48;92096.34;;;8.22;69.55
65376;BME280;51976;47.332;9.404;2023-04-24T08:03:16;92067.75;;;8.12;69.06
65376;BME280;51976;47.332;9.404;2023-04-24T08:05:44;92028.97;;;7.76;68.60
65376;BME280;51976;47.332;9.404;2023-04-24T08:11:15;92098.53;;;8.68;68.15
65376;BME280;51976;47.332;9.404;2023-04-24T08:13:43;92100.19;;;8.64;67.44
65376;BME280;51976;47.332;9.404;2023-04-24T08:16:09;92079.81;;;8.39;68.86
65376;BME280;51976;47.332;9.404;2023-04-24T08:18:38;92112.50;;;8.46;69.58
65376;BME280;51976;47.332;9.404;2023-04-24T08:21:03;92103.50;;;8.32;70.00
65376;BME280;51976;47.332;9.404;2023-04-24T08:23:34;92098.19;;;8.27;70.43
65376;BME280;51976;47.332;9.404;2023-04-24T08:26:12;91943.59;;;7.06;69.17
65376;BME280;51976;47.332;9.404;2023-04-24T08:28:41;92066.72;;;7.56;68.50
65376;BME280;51976;47.332;9.404;2023-04-24T08:31:10;92158.47;;;7.87;69.82
65376;BME280;51976;47.332;9.404;2023-04-24T08:34:01;92093.88;;;6.71;70.87
65376;BME280;51976;47.332;9.404;2023-04-24T08:36:29;92141.72;;;6.88;71.75
65376;BME280;51976;47.332;9.404;2023-04-24T08:39:02;92039.56;;;6.06;72.47
65376;BME280;51976;47.332;9.404;2023-04-24T08:41:43;91982.22;;;5.63;71.24
65376;BME280;51976;47.332;9.404;2023-04-24T08:44:29;91984.34;;;5.71;69.51
65376;BME280;51976;47.332;9.404;2023-04-24T08:46:54;92185.53;;;7.12;68.33
65376;BME280;51976;47.332;9.404;2023-04-24T08:49:42;92073.78;;;6.24;68.29
65376;BME280;51976;47.332;9.404;2023-04-24T08:53:06;92005.28;;;6.18;68.26
65376;BME280;51976;47.332;9.404;2023-04-24T08:55:21;92121.00;;;7.08;67.75
65376;BME280;51976;47.332;9.404;2023-04-24T08:57:59;91999.63;;;6.69;66.87
65376;BME280;51976;47.332;9.404;2023-04-24T09:01:07;92093.81;;;7.54;67.21
65376;BME280;51976;47.332;9.404;2023-04-24T09:06:11;92067.22;;;7.87;65.91
65376;BME280;51976;47.332;9.404;2023-04-24T09:09:00;92018.28;;;8.19;64.91
65376;BME280;51976;47.332;9.404;2023-04-24T09:14:06;92088.59;;;9.25;63.70
65376;BME280;51976;47.332;9.404;2023-04-24T09:16:32;92149.09;;;9.60;63.05
65376;BME280;51976;47.332;9.404;2023-04-24T09:18:58;92118.84;;;9.68;62.47
65376;BME280;51976;47.332;9.404;2023-04-24T09:21:23;92119.13;;;10.31;62.25
65376;BME280;51976;47.332;9.404;2023-04-24T09:24:00;92071.97;;;10.15;60.88
65376;BME280;51976;47.332;9.404;2023-04-24T09:26:26;92073.53;;;9.89;61.18
65376;BME280;51976;47.332;9.404;2023-04-24T09:28:54;92122.03;;;10.35;59.80
65376;BME280;51976;47.332;9.404;2023-04-24T09:31:19;92089.69;;;9.89;62.11
65376;BME280;51976;47.332;9.404;2023-04-24T09:33:58;92150.22;;;9.02;66.15
65376;BME280;51976;47.332;9.404;2023-04-24T09:36:31;92084.34;;;8.62;67.88
65376;BME280;51976;47.332;9.404;2023-04-24T09:39:01;92110.41;;;7.90;67.64
65376;BME280;51976;47.332;9.404;2023-04-24T09:41:27;92116.66;;;7.46;71.13
65376;BME280;51976;47.332;9.404;2023-04-24T09:43:55;92142.91;;;7.16;71.54
65376;BME280;51976;47.332;9.404;2023-04-24T09:46:28;92186.94;;;7.04;73.70
65376;BME280;51976;47.332;9.404;2023-04-24T09:48:54;92105.72;;;6.60;73.78
65376;BME280;51976;47.332;9.404;2023-04-24T09:51:46;92191.25;;;6.95;74.10
65376;BME280;51976;47.332;9.404;2023-04-24T09:54:15;92173.06;;;6.92;74.22
65376;BME280;51976;47.332;9.404;2023-04-24T09:56:48;92181.88;;;6.98;75.33
65376;BME280;51976;47.332;9.404;2023-04-24T09:59:16;92116.88;;;6.82;74.20
65376;BME280;51976;47.332;9.404;2023-04-24T10:01:42;92161.66;;;7.55;74.62
65376;BME280;51976;47.332;9.404;2023-04-24T10:04:23;92181.97;;;7.66;72.44
65376;BME280;51976;47.332;9.404;2023-04-24T10:06:56;92110.16;;;7.24;70.55
65376;BME280;51976;47.332;9.404;2023-04-24T10:09:25;92109.63;;;7.56;71.80
65376;BME280;51976;47.332;9.404;2023-04-24T10:12:02;92104.53;;;8.12;70.28
65376;BME280;51976;47.332;9.404;2023-04-24T10:14:37;92081.13;;;8.18;69.19
65376;BME280;51976;47.332;9.404;2023-04-24T10:17:04;92118.50;;;8.38;68.77
65376;BME280;51976;47.332;9.404;2023-04-24T10:19:41;92177.41;;;8.77;65.59
65376;BME280;51976;47.332;9.404;2023-04-24T10:22:15;92115.75;;;8.43;65.85
65376;BME280;51976;47.332;9.404;2023-04-24T10:25:20;92093.38;;;8.00;64.00
65376;BME280;51976;47.332;9.404;2023-04-24T10:28:02;92120.16;;;8.05;64.59
65376;BME280;51976;47.332;9.404;2023-04-24T10:30:54;92192.63;;;8.63;64.22
65376;BME280;51976;47.332;9.404;2023-04-24T10:33:23;92142.06;;;8.17;64.80
65376;BME280;51976;47.332;9.404;2023-04-24T10:35:50;92170.03;;;8.40;64.99
65376;BME280;51976;47.332;9.404;2023-04-24T10:38:22;92205.59;;;8.56;65.10
65376;BME280;51976;47.332;9.404;2023-04-24T10:41:19;92117.97;;;7.83;65.48
65376;BME280;51976;47.332;9.404;2023-04-24T10:44:11;92213.13;;;8.54;64.63
65376;BME280;51976;47.332;9.404;2023-04-24T10:47:27;92034.16;;;7.09;65.17
65376;BME280;51976;47.332;9.404;2023-04-24T10:57:27;92225.06;;;8.42;65.11
65376;BME280;51976;47.332;9.404;2023-04-24T11:06:44;92035.69;;;7.97;62.83
65376;BME280;51976;47.332;9.404;2023-04-24T11:15:37;92212.72;;;9.32;60.91
65376;BME280;51976;47.332;9.404;2023-04-24T11:21:38;92221.06;;;9.54;60.53
65376;BME280;51976;47.332;9.404;2023-04-24T11:24:49;92238.44;;;9.80;60.28
65376;BME280;51976;47.332;9.404;2023-04-24T11:27:43;92096.94;;;9.04;60.18
65376;BME280;51976;47.332;9.404;2023-04-24T11:30:21;92129.34;;;8.94;59.78
65376;BME280;51976;47.332;9.404;2023-04-24T11:32:52;92231.94;;;9.63;60.22
65376;BME280;51976;47.332;9.404;2023-04-24T11:35:20;92224.53;;;9.55;60.20
65376;BME280;51976;47.332;9.404;2023-04-24T11:37:52;92221.63;;;9.51;60.75
65376;BME280;51976;47.332;9.404;2023-04-24T11:40:30;92133.56;;;9.38;59.97
65376;BME280;51976;47.332;9.404;2023-04-24T11:42:56;92160.09;;;9.96;58.71
65376;BME280;51976;47.332;9.404;2023-04-24T11:45:29;92139.72;;;9.76;57.92
65376;BME280;51976;47.332;9.404;2023-04-24T11:47:55;92156.66;;;9.76;59.08
65376;BME280;51976;47.332;9.404;2023-04-24T11:50:23;92104.34;;;9.31;59.37
65376;BME280;51976;47.332;9.404;2023-04-24T11:52:51;92130.13;;;9.70;59.69
65376;BME280;51976;47.332;9.404;2023-04-24T11:55:27;92185.56;;;10.03;59.04
65376;BME280;51976;47.332;9.404;2023-04-24T11:57:55;92214.72;;;9.82;58.86
65376;BME280;51976;47.332;9.404;2023-04-24T12:00:28;92145.41;;;9.56;59.40
65376;BME280;51976;47.332;9.404;2023-04-24T12:03:07;92153.09;;;9.62;59.22
65376;BME280;51976;47.332;9.404;2023-04-24T12:05:33;92125.13;;;9.07;60.10
65376;BME280;51976;47.332;9.404;2023-04-24T12:07:59;92147.94;;;9.09;61.90
65376;BME280;51976;47.332;9.404;2023-04-24T12:10:30;92120.94;;;8.58;62.92
65376;BME280;51976;47.332;9.404;2023-04-24T12:12:59;92209.78;;;8.67;65.67
65376;BME280;51976;47.332;9.404;2023-04-24T12:15:28;92265.44;;;8.32;65.07
65376;BME280;51976;47.332;9.404;2023-04-24T12:17:54;92181.75;;;7.57;65.99
65376;BME280;51976;47.332;9.404;2023-04-24T12:20:28;92210.66;;;7.99;66.20
65376;BME280;51976;47.332;9.404;2023-04-24T12:22:56;92237.13;;;8.45;66.81
65376;BME280;51976;47.332;9.404;2023-04-24T12:25:24;92180.00;;;8.05;66.98
65376;BME280;51976;47.332;9.404;2023-04-24T12:28:12;92200.16;;;8.61;67.25
65376;BME280;51976;47.332;9.404;2023-04-24T12:30:44;92236.41;;;8.87;65.44
65376;BME280;51976;47.332;9.404;2023-04-24T12:33:10;92229.31;;;9.20;66.61
65376;BME280;51976;47.332;9.404;2023-04-24T12:35:35;92154.81;;;9.21;65.48
65376;BME280;51976;47.332;9.404;2023-04-24T12:38:10;92171.56;;;9.69;64.61
65376;BME280;51976;47.332;9.404;2023-04-24T12:40:38;92191.75;;;9.53;64.55
65376;BME280;51976;47.332;9.404;2023-04-24T12:43:13;92210.50;;;9.76;64.42
65376;BME280;51976;47.332;9.404;2023-04-24T12:45:39;92177.34;;;9.95;66.07
65376;BME280;51976;47.332;9.404;2023-04-24T12:48:05;92138.72;;;9.53;62.31
65376;BME280;51976;47.332;9.404;2023-04-24T12:50:30;92121.56;;;9.30;60.48
65376;BME280;51976;47.332;9.404;2023-04-24T12:52:55;92195.47;;;9.57;61.55
65376;BME280;51976;47.332;9.404;2023-04-24T12:55:24;92150.00;;;9.18;63.99
65376;BME280;51976;47.332;9.404;2023-04-24T12:57:50;92228.25;;;9.77;61.45
65376;BME280;51976;47.332;9.404;2023-04-24T13:00:17;92184.56;;;9.05;64.87
65376;BME280;51976;47.332;9.404;2023-04-24T13:02:42;92156.44;;;8.26;66.44
65376;BME280;51976;47.332;9.404;2023-04-24T13:05:08;92236.38;;;8.39;67.23
65376;BME280;51976;47.332;9.404;2023-04-24T13:07:34;92212.72;;;8.41;67.18
65376;BME280;51976;47.332;9.404;2023-04-24T13:09:59;92210.72;;;8.76;64.37
65376;BME280;51976;47.332;9.404;2023-04-24T13:12:25;92182.63;;;8.68;62.36
65376;BME280;51976;47.332;9.404;2023-04-24T13:14:51;92187.59;;;9.23;62.03
65376;BME280;51976;47.332;9.404;2023-04-24T13:17:26;92173.34;;;9.41;61.77
65376;BME280;51976;47.332;9.404;2023-04-24T13:19:55;92182.56;;;9.35;61.04
65376;BME280;51976;47.332;9.404;2023-04-24T13:22:20;92180.66;;;9.16;60.57
65376;BME280;51976;47.332;9.404;2023-04-24T13:24:46;92223.66;;;9.59;62.23
65376;BME280;51976;47.332;9.404;2023-04-24T13:27:13;92190.72;;;9.48;64.21
65376;BME280;51976;47.332;9.404;2023-04-24T13:29:42;92183.75;;;9.29;62.35
65376;BME280;51976;47.332;9.404;2023-04-24T13:32:56;92248.75;;;9.55;63.30
65376;BME280;51976;47.332;9.404;2023-04-24T13:36:00;92159.06;;;9.03;62.31
65376;BME280;51976;47.332;9.404;2023-04-24T13:42:40;92236.91;;;9.74;59.77
65376;BME280;51976;47.332;9.404;2023-04-24T13:48:49;92176.47;;;9.99;59.08
65376;BME280;51976;47.332;9.404;2023-04-24T13:51:14;92155.22;;;9.98;58.01
65376;BME280;51976;47.332;9.404;2023-04-24T13:53:40;92225.59;;;10.10;57.84
65376;BME280;51976;47.332;9.404;2023-04-24T13:56:06;92152.69;;;9.88;57.27
65376;BME280;51976;47.332;9.404;2023-04-24T13:58:32;92166.69;;;10.22;56.99
65376;BME280;51976;47.332;9.404;2023-04-24T14:00:58;92157.66;;;10.13;56.82